Temp: 11.4°C   Hum: 87%
  Wind: 0.0mph   Dir: W (276°)
  Rain: 0.0mm Rate: 0.0mm/hr
  Pressure: 1027.4mb

Historic data

Bath Spa Weather Station Historical Data
Daily Summary for October 16, 2021 Units:  Both    English   Metric
Daily Weekly Monthly Yearly Custom
  High: Low: Average:
Temperature: 63.1 °F /  17.3 °C 49.3 °F /  9.6 °C 55.2 °F /  12.9 °C
Dew Point: 56.4 °F /  13.6 °C 48.1 °F /  8.9 °C 51.9 °F /  11.1 °C
Humidity: 94.2% 70.4% 86%
Wind Speed: 7.8mph /  12.6km/h - 1.2mph /  1.9km/h
Wind Gust: 12mph /  19.3km/h - -
Wind- - ESE
Pressure: 30.19 in /  1022.2 hPa 30.06 in /  1017.8 hPa -
Precipitation: 0.02 in /  0.51 mm    
Historical Graphs
 
 
Tabular Data for October 16, 2021
Time Temperature Dew Point Pressure Wind Wind Speed Wind Gust Humidity Rainfall Rate (Hourly) solar
00:09 53.8 °F /  12.1 °C 50.5 °F /  10.3 °C 30.19in /  1022.2hPa NE 0.5mph /  0.8km/h 3mph /  4.8km/h 86% 0.00in /  0mm 0 W/m2
00:14 53.8 °F /  12.1 °C 50.5 °F /  10.3 °C 30.19in /  1022.2hPa NE 1.2mph /  1.9km/h 3mph /  4.8km/h 86% 0.00in /  0mm 0 W/m2
00:19 53.8 °F /  12.1 °C 50.5 °F /  10.3 °C 30.19in /  1022.2hPa NE 0.5mph /  0.8km/h 3mph /  4.8km/h 86% 0.00in /  0mm 0 W/m2
00:24 53.8 °F /  12.1 °C 50.5 °F /  10.3 °C 30.19in /  1022.2hPa NE 0.6mph /  1km/h 2mph /  3.2km/h 86% 0.00in /  0mm 0 W/m2
00:29 53.8 °F /  12.1 °C 50.5 °F /  10.3 °C 30.19in /  1022.2hPa NE 0.7mph /  1.1km/h 2mph /  3.2km/h 86% 0.00in /  0mm 0 W/m2
00:34 53.8 °F /  12.1 °C 50.5 °F /  10.3 °C 30.19in /  1022.2hPa NE 0.2mph /  0.3km/h 2mph /  3.2km/h 86% 0.00in /  0mm 0 W/m2
00:39 53.7 °F /  12.1 °C 50.4 °F /  10.2 °C 30.19in /  1022.2hPa NE 0.2mph /  0.3km/h 2mph /  3.2km/h 86% 0.00in /  0mm 0 W/m2
00:44 53.7 °F /  12.1 °C 50.5 °F /  10.3 °C 30.19in /  1022.2hPa NE 0.4mph /  0.6km/h 2mph /  3.2km/h 86% 0.00in /  0mm 0 W/m2
00:49 53.6 °F /  12 °C 50.4 °F /  10.2 °C 30.19in /  1022.2hPa NE 0.4mph /  0.6km/h 2mph /  3.2km/h 86% 0.00in /  0mm 0 W/m2
00:54 53.8 °F /  12.1 °C 50.5 °F /  10.3 °C 30.19in /  1022.2hPa NE 0.5mph /  0.8km/h 2mph /  3.2km/h 86% 0.00in /  0mm 0 W/m2
00:59 53.6 °F /  12 °C 50.4 °F /  10.2 °C 30.18in /  1021.9hPa NE 0.5mph /  0.8km/h 2mph /  3.2km/h 86% 0.00in /  0mm 0 W/m2
01:03 53.6 °F /  12 °C 50.6 °F /  10.3 °C 30.18in /  1021.9hPa NE 0.5mph /  0.8km/h 2mph /  3.2km/h 86.8% 0.00in /  0mm 0 W/m2
01:09 53.6 °F /  12 °C 50.7 °F /  10.4 °C 30.18in /  1021.9hPa NE 0.6mph /  1km/h 3mph /  4.8km/h 87% 0.00in /  0mm 0 W/m2
01:14 53.6 °F /  12 °C 50.7 °F /  10.4 °C 30.18in /  1021.9hPa Calm   1mph /  1.6km/h 87% 0.00in /  0mm 0 W/m2
01:19 53.6 °F /  12 °C 50.7 °F /  10.4 °C 30.18in /  1021.9hPa Calm     87% 0.00in /  0mm 0 W/m2
01:24 53.4 °F /  11.9 °C 50.5 °F /  10.3 °C 30.18in /  1021.9hPa NE 1.6mph /  2.6km/h 3mph /  4.8km/h 87% 0.00in /  0mm 0 W/m2
01:29 53.4 °F /  11.9 °C 50.5 °F /  10.3 °C 30.18in /  1021.9hPa NE 0.4mph /  0.6km/h 3mph /  4.8km/h 87% 0.00in /  0mm 0 W/m2
01:34 53.4 °F /  11.9 °C 50.5 °F /  10.3 °C 30.18in /  1021.9hPa NE 1.6mph /  2.6km/h 4mph /  6.4km/h 87% 0.00in /  0mm 0 W/m2
01:39 53.4 °F /  11.9 °C 50.5 °F /  10.3 °C 30.18in /  1021.9hPa NE 0.8mph /  1.3km/h 3mph /  4.8km/h 87% 0.00in /  0mm 0 W/m2
01:44 53.3 °F /  11.8 °C 50.4 °F /  10.2 °C 30.18in /  1021.9hPa NE 0.6mph /  1km/h 3mph /  4.8km/h 87% 0.00in /  0mm 0 W/m2
01:49 53.2 °F /  11.8 °C 50.4 °F /  10.2 °C 30.18in /  1021.9hPa NE 0.4mph /  0.6km/h 2mph /  3.2km/h 87% 0.00in /  0mm 0 W/m2
01:54 53.2 °F /  11.8 °C 50.4 °F /  10.2 °C 30.18in /  1021.9hPa NE 0.2mph /  0.3km/h 2mph /  3.2km/h 87% 0.00in /  0mm 0 W/m2
01:59 53.1 °F /  11.7 °C 50.3 °F /  10.2 °C 30.18in /  1021.9hPa Calm   1mph /  1.6km/h 87% 0.00in /  0mm 0 W/m2
02:04 53.1 °F /  11.7 °C 50.2 °F /  10.1 °C 30.18in /  1021.9hPa NE 0.4mph /  0.6km/h 3mph /  4.8km/h 87% 0.00in /  0mm 0 W/m2
02:09 53.1 °F /  11.7 °C 50.2 °F /  10.1 °C 30.18in /  1021.9hPa NE 0.8mph /  1.3km/h 3mph /  4.8km/h 87% 0.00in /  0mm 0 W/m2
02:14 53.1 °F /  11.7 °C 50.2 °F /  10.1 °C 30.18in /  1021.9hPa NE 0.4mph /  0.6km/h 3mph /  4.8km/h 87% 0.00in /  0mm 0 W/m2
02:19 53.1 °F /  11.7 °C 50.2 °F /  10.1 °C 30.18in /  1021.9hPa NE 0.4mph /  0.6km/h 4mph /  6.4km/h 87% 0.00in /  0mm 0 W/m2
02:24 53.1 °F /  11.7 °C 50.2 °F /  10.1 °C 30.18in /  1021.9hPa Calm     87% 0.00in /  0mm 0 W/m2
02:29 53.1 °F /  11.7 °C 50.2 °F /  10.1 °C 30.18in /  1021.9hPa NE 1.2mph /  1.9km/h 2mph /  3.2km/h 87% 0.00in /  0mm 0 W/m2
02:34 53.1 °F /  11.7 °C 50.4 °F /  10.2 °C 30.17in /  1021.6hPa NE 0.2mph /  0.3km/h 2mph /  3.2km/h 87.6% 0.00in /  0mm 0 W/m2
02:39 53.1 °F /  11.7 °C 50.5 °F /  10.3 °C 30.17in /  1021.6hPa NE 0.6mph /  1km/h 2mph /  3.2km/h 88% 0.00in /  0mm 0 W/m2
02:44 53.2 °F /  11.8 °C 50.7 °F /  10.4 °C 30.17in /  1021.6hPa NE 0.2mph /  0.3km/h 2mph /  3.2km/h 88% 0.00in /  0mm 0 W/m2
02:49 53.2 °F /  11.8 °C 50.7 °F /  10.4 °C 30.17in /  1021.6hPa NE 0.8mph /  1.3km/h 3mph /  4.8km/h 88% 0.00in /  0mm 0 W/m2
02:54 53.2 °F /  11.8 °C 50.7 °F /  10.4 °C 30.17in /  1021.6hPa NE 0.4mph /  0.6km/h 2mph /  3.2km/h 88% 0.00in /  0mm 0 W/m2
02:59 53.1 °F /  11.7 °C 50.5 °F /  10.3 °C 30.17in /  1021.6hPa NE 1.2mph /  1.9km/h 3mph /  4.8km/h 88% 0.02in /  0.51mm 0 W/m2
03:04 53.1 °F /  11.7 °C 50.5 °F /  10.3 °C 30.17in /  1021.6hPa NE 0.9mph /  1.4km/h 2mph /  3.2km/h 88% 0.02in /  0.51mm 0 W/m2
03:09 53.1 °F /  11.7 °C 50.5 °F /  10.3 °C 30.16in /  1021.2hPa NE 1.3mph /  2.1km/h 2mph /  3.2km/h 88% 0.02in /  0.51mm 0 W/m2
03:14 53.1 °F /  11.7 °C 50.5 °F /  10.3 °C 30.16in /  1021.2hPa NE 1.2mph /  1.9km/h 3mph /  4.8km/h 88% 0.02in /  0.51mm 0 W/m2
03:19 53.1 °F /  11.7 °C 50.7 °F /  10.4 °C 30.16in /  1021.2hPa Calm   1mph /  1.6km/h 88.8% 0.02in /  0.51mm 0 W/m2
03:24 53 °F /  11.7 °C 50.6 °F /  10.3 °C 30.16in /  1021.2hPa NE 0.2mph /  0.3km/h 2mph /  3.2km/h 89% 0.02in /  0.51mm 0 W/m2
03:29 52.9 °F /  11.6 °C 50.5 °F /  10.3 °C 30.16in /  1021.2hPa NE 1.3mph /  2.1km/h 3mph /  4.8km/h 89% 0.02in /  0.51mm 0 W/m2
03:34 52.9 °F /  11.6 °C 50.5 °F /  10.3 °C 30.16in /  1021.2hPa NE 1.2mph /  1.9km/h 3mph /  4.8km/h 89% 0.02in /  0.51mm 0 W/m2
03:39 52.7 °F /  11.5 °C 50.5 °F /  10.3 °C 30.16in /  1021.2hPa NE 0.2mph /  0.3km/h 2mph /  3.2km/h 89.2% 0.02in /  0.51mm 0 W/m2
03:44 52.6 °F /  11.4 °C 50.4 °F /  10.2 °C 30.16in /  1021.2hPa Calm     89.2% 0.02in /  0.51mm 0 W/m2
03:49 52.5 °F /  11.4 °C 50.3 °F /  10.2 °C 30.16in /  1021.2hPa Calm     89.4% 0.02in /  0.51mm 0 W/m2
03:54 52.4 °F /  11.3 °C 50.4 °F /  10.2 °C 30.15in /  1020.9hPa NE 0.2mph /  0.3km/h 2mph /  3.2km/h 90% 0.02in /  0.51mm 0 W/m2
03:59 52.2 °F /  11.2 °C 50.2 °F /  10.1 °C 30.15in /  1020.9hPa Calm   2mph /  3.2km/h 90% 0.02in /  0.51mm 0 W/m2
04:04 52 °F /  11.1 °C 50 °F /  10 °C 30.16in /  1021.2hPa NE 0.2mph /  0.3km/h 1mph /  1.6km/h 90% 0.00in /  0mm 0 W/m2
04:09 51.7 °F /  10.9 °C 49.7 °F /  9.8 °C 30.16in /  1021.2hPa Calm   2mph /  3.2km/h 90% 0.00in /  0mm 0 W/m2
04:14 51.4 °F /  10.8 °C 49.5 °F /  9.7 °C 30.16in /  1021.2hPa Calm     90% 0.00in /  0mm 0 W/m2
04:19 51.3 °F /  10.7 °C 49.3 °F /  9.6 °C 30.16in /  1021.2hPa Calm     90% 0.00in /  0mm 0 W/m2
04:24 51.1 °F /  10.6 °C 49.1 °F /  9.5 °C 30.15in /  1020.9hPa Calm     90% 0.00in /  0mm 0 W/m2
04:29 51.1 °F /  10.6 °C 49.3 °F /  9.6 °C 30.15in /  1020.9hPa NE 0.2mph /  0.3km/h 1mph /  1.6km/h 90.4% 0.00in /  0mm 0 W/m2
04:34 51.1 °F /  10.6 °C 49.5 °F /  9.7 °C 30.15in /  1020.9hPa Calm     91% 0.00in /  0mm 0 W/m2
04:39 51.1 °F /  10.6 °C 49.5 °F /  9.7 °C 30.15in /  1020.9hPa Calm     91% 0.00in /  0mm 0 W/m2
04:44 51.1 °F /  10.6 °C 49.5 °F /  9.7 °C 30.15in /  1020.9hPa NE 0.2mph /  0.3km/h 1mph /  1.6km/h 91% 0.00in /  0mm 0 W/m2
04:49 51.1 °F /  10.6 °C 49.5 °F /  9.7 °C 30.15in /  1020.9hPa Calm     91% 0.00in /  0mm 0 W/m2
04:54 51.1 °F /  10.6 °C 49.5 °F /  9.7 °C 30.15in /  1020.9hPa Calm   1mph /  1.6km/h 91% 0.00in /  0mm 0 W/m2
04:59 51.1 °F /  10.6 °C 49.5 °F /  9.7 °C 30.15in /  1020.9hPa Calm     91% 0.00in /  0mm 0 W/m2
05:04 51.1 °F /  10.6 °C 49.5 °F /  9.7 °C 30.14in /  1020.5hPa Calm     91% 0.00in /  0mm 0 W/m2
05:09 51.1 °F /  10.6 °C 49.5 °F /  9.7 °C 30.14in /  1020.5hPa Calm     91.2% 0.00in /  0mm 0 W/m2
05:14 51.1 °F /  10.6 °C 49.6 °F /  9.8 °C 30.14in /  1020.5hPa Calm     92% 0.00in /  0mm 0 W/m2
05:19 51.1 °F /  10.6 °C 49.5 °F /  9.7 °C 30.14in /  1020.5hPa Calm     91% 0.00in /  0mm 0 W/m2
05:24 50.8 °F /  10.4 °C 49.3 °F /  9.6 °C 30.14in /  1020.5hPa Calm     91.2% 0.00in /  0mm 0 W/m2
05:29 50.7 °F /  10.4 °C 49.5 °F /  9.7 °C 30.14in /  1020.5hPa Calm     92% 0.00in /  0mm 0 W/m2
05:34 50.7 °F /  10.4 °C 49.5 °F /  9.7 °C 30.14in /  1020.5hPa Calm     92% 0.00in /  0mm 0 W/m2
05:39 50.5 °F /  10.3 °C 49.3 °F /  9.6 °C 30.14in /  1020.5hPa Calm     92% 0.00in /  0mm 0 W/m2
05:44 50.5 °F /  10.3 °C 49.2 °F /  9.6 °C 30.14in /  1020.5hPa Calm     92% 0.00in /  0mm 0 W/m2
05:49 50.3 °F /  10.2 °C 49 °F /  9.4 °C 30.14in /  1020.5hPa Calm     92% 0.00in /  0mm 0 W/m2
05:54 50.2 °F /  10.1 °C 48.9 °F /  9.4 °C 30.14in /  1020.5hPa Calm     92% 0.00in /  0mm 0 W/m2
05:59 49.9 °F /  9.9 °C 48.7 °F /  9.3 °C 30.14in /  1020.5hPa Calm     92% 0.00in /  0mm 0 W/m2
06:04 49.7 °F /  9.8 °C 48.5 °F /  9.2 °C 30.14in /  1020.5hPa Calm     92% 0.00in /  0mm 0 W/m2
06:09 49.5 °F /  9.7 °C 48.2 °F /  9 °C 30.14in /  1020.5hPa Calm     92% 0.00in /  0mm 0 W/m2
06:14 49.3 °F /  9.6 °C 48.1 °F /  8.9 °C 30.14in /  1020.5hPa Calm     92% 0.00in /  0mm 0 W/m2
06:19 49.4 °F /  9.7 °C 48.1 °F /  8.9 °C 30.14in /  1020.5hPa Calm     92% 0.00in /  0mm 0 W/m2
06:24 49.4 °F /  9.7 °C 48.1 °F /  8.9 °C 30.14in /  1020.5hPa Calm     92% 0.00in /  0mm 0 W/m2
06:29 49.5 °F /  9.7 °C 48.2 °F /  9 °C 30.14in /  1020.5hPa Calm     92% 0.00in /  0mm 0 W/m2
06:34 49.6 °F /  9.8 °C 48.5 °F /  9.2 °C 30.14in /  1020.5hPa Calm     92.5% 0.00in /  0mm 0 W/m2
06:39 49.6 °F /  9.8 °C 48.6 °F /  9.2 °C 30.14in /  1020.5hPa Calm     93% 0.00in /  0mm 0 W/m2
06:44 49.7 °F /  9.8 °C 48.6 °F /  9.2 °C 30.14in /  1020.5hPa Calm     92.8% 0.00in /  0mm 0 W/m2
06:49 49.9 °F /  9.9 °C 48.8 °F /  9.3 °C 30.14in /  1020.5hPa Calm     93% 0.00in /  0mm 0 W/m2
06:54 50 °F /  10 °C 48.9 °F /  9.4 °C 30.14in /  1020.5hPa Calm     93% 0.00in /  0mm 0 W/m2
06:59 50.1 °F /  10.1 °C 49 °F /  9.4 °C 30.14in /  1020.5hPa Calm     93% 0.00in /  0mm 0 W/m2
07:04 50.2 °F /  10.1 °C 49.1 °F /  9.5 °C 30.14in /  1020.5hPa Calm     93% 0.00in /  0mm 0 W/m2
07:09 50.2 °F /  10.1 °C 49.1 °F /  9.5 °C 30.14in /  1020.5hPa Calm     93% 0.00in /  0mm 0 W/m2
07:14 50.2 °F /  10.1 °C 49.1 °F /  9.5 °C 30.14in /  1020.5hPa Calm     93% 0.00in /  0mm 0 W/m2
07:19 50.3 °F /  10.2 °C 49.2 °F /  9.6 °C 30.14in /  1020.5hPa Calm     93% 0.00in /  0mm 0 W/m2
07:24 50.4 °F /  10.2 °C 49.3 °F /  9.6 °C 30.14in /  1020.5hPa Calm     93% 0.00in /  0mm 0 W/m2
07:29 50.4 °F /  10.2 °C 49.3 °F /  9.6 °C 30.14in /  1020.5hPa Calm     93% 0.00in /  0mm 0 W/m2
07:34 50.5 °F /  10.3 °C 49.4 °F /  9.7 °C 30.14in /  1020.5hPa Calm     93% 0.00in /  0mm 0 W/m2
07:39 50.5 °F /  10.3 °C 49.5 °F /  9.7 °C 30.14in /  1020.5hPa Calm     93% 0.00in /  0mm 0 W/m2
07:44 50.5 °F /  10.3 °C 49.5 °F /  9.7 °C 30.14in /  1020.5hPa Calm     93% 0.00in /  0mm 5 W/m2
07:49 50.7 °F /  10.4 °C 49.6 °F /  9.8 °C 30.14in /  1020.5hPa Calm     93% 0.00in /  0mm 7 W/m2
07:54 50.7 °F /  10.4 °C 49.6 °F /  9.8 °C 30.14in /  1020.5hPa Calm     93% 0.00in /  0mm 12 W/m2
07:59 50.8 °F /  10.4 °C 49.7 °F /  9.8 °C 30.14in /  1020.5hPa Calm     93% 0.00in /  0mm 16 W/m2
08:04 51.1 °F /  10.6 °C 50 °F /  10 °C 30.14in /  1020.5hPa Calm     93% 0.00in /  0mm 25 W/m2
08:09 51.1 °F /  10.6 °C 50.2 °F /  10.1 °C 30.15in /  1020.9hPa Calm     93.6% 0.00in /  0mm 30 W/m2
08:14 51.3 °F /  10.7 °C 50.5 °F /  10.3 °C 30.15in /  1020.9hPa Calm     93.8% 0.00in /  0mm 35 W/m2
08:19 51.4 °F /  10.8 °C 50.5 °F /  10.3 °C 30.15in /  1020.9hPa Calm     93.2% 0.00in /  0mm 37 W/m2
08:24 51.6 °F /  10.9 °C 50.7 °F /  10.4 °C 30.15in /  1020.9hPa NE 0.2mph /  0.3km/h 1mph /  1.6km/h 93.4% 0.00in /  0mm 28 W/m2
08:29 52 °F /  11.1 °C 51.3 °F /  10.7 °C 30.15in /  1020.9hPa NE 0.2mph /  0.3km/h 2mph /  3.2km/h 94% 0.00in /  0mm 30 W/m2
08:34 52.2 °F /  11.2 °C 51.4 °F /  10.8 °C 30.15in /  1020.9hPa NE 0.4mph /  0.6km/h 2mph /  3.2km/h 94% 0.00in /  0mm 35 W/m2
08:39 52.3 °F /  11.3 °C 51.5 °F /  10.8 °C 30.15in /  1020.9hPa NE 0.2mph /  0.3km/h 2mph /  3.2km/h 94% 0.00in /  0mm 37 W/m2
08:44 52.3 °F /  11.3 °C 51.6 °F /  10.9 °C 30.15in /  1020.9hPa NE 0.9mph /  1.4km/h 2mph /  3.2km/h 94% 0.00in /  0mm 51 W/m2
08:49 52.4 °F /  11.3 °C 51.7 °F /  10.9 °C 30.15in /  1020.9hPa Calm   2mph /  3.2km/h 94% 0.00in /  0mm 54 W/m2
08:54 52.5 °F /  11.4 °C 51.8 °F /  11 °C 30.15in /  1020.9hPa NE 0.4mph /  0.6km/h 2mph /  3.2km/h 94% 0.00in /  0mm 63 W/m2
08:59 52.5 °F /  11.4 °C 51.8 °F /  11 °C 30.15in /  1020.9hPa NE 2.4mph /  3.9km/h 4mph /  6.4km/h 94% 0.00in /  0mm 95 W/m2
09:04 52.5 °F /  11.4 °C 51.8 °F /  11 °C 30.15in /  1020.9hPa NE 0.4mph /  0.6km/h 3mph /  4.8km/h 94% 0.00in /  0mm 153 W/m2
09:09 52.5 °F /  11.4 °C 51.8 °F /  11 °C 30.15in /  1020.9hPa NE 0.6mph /  1km/h 4mph /  6.4km/h 94% 0.00in /  0mm 163 W/m2
09:14 52.5 °F /  11.4 °C 51.8 °F /  11 °C 30.16in /  1021.2hPa NE 1.3mph /  2.1km/h 4mph /  6.4km/h 94% 0.00in /  0mm 169 W/m2
09:19 52.5 °F /  11.4 °C 51.8 °F /  11 °C 30.16in /  1021.2hPa NE 0.8mph /  1.3km/h 3mph /  4.8km/h 94% 0.00in /  0mm 83 W/m2
09:24 52.5 °F /  11.4 °C 51.8 °F /  11 °C 30.16in /  1021.2hPa NE 1.4mph /  2.3km/h 4mph /  6.4km/h 94% 0.00in /  0mm 84 W/m2
09:29 52.5 °F /  11.4 °C 51.8 °F /  11 °C 30.16in /  1021.2hPa NE 0.8mph /  1.3km/h 4mph /  6.4km/h 94% 0.00in /  0mm 100 W/m2
09:34 52.8 °F /  11.6 °C 52.1 °F /  11.2 °C 30.16in /  1021.2hPa NE 1.5mph /  2.4km/h 4mph /  6.4km/h 94% 0.00in /  0mm 63 W/m2
09:39 52.7 °F /  11.5 °C 52 °F /  11.1 °C 30.16in /  1021.2hPa NE 0.8mph /  1.3km/h 3mph /  4.8km/h 94% 0.01in /  0.25mm 49 W/m2
09:44 52.6 °F /  11.4 °C 51.9 °F /  11.1 °C 30.16in /  1021.2hPa NE 2.2mph /  3.5km/h 5mph /  8km/h 94% 0.01in /  0.25mm 102 W/m2
09:49 52.5 °F /  11.4 °C 51.8 °F /  11 °C 30.15in /  1020.9hPa NE 2mph /  3.2km/h 4mph /  6.4km/h 94% 0.01in /  0.25mm 104 W/m2
09:54 52.7 °F /  11.5 °C 52 °F /  11.1 °C 30.15in /  1020.9hPa NE 1.3mph /  2.1km/h 4mph /  6.4km/h 94% 0.01in /  0.25mm 95 W/m2
09:59 52.7 °F /  11.5 °C 52 °F /  11.1 °C 30.15in /  1020.9hPa NE 1.1mph /  1.8km/h 4mph /  6.4km/h 94% 0.01in /  0.25mm 105 W/m2
10:04 52.7 °F /  11.5 °C 52 °F /  11.1 °C 30.16in /  1021.2hPa NE 1mph /  1.6km/h 3mph /  4.8km/h 94% 0.01in /  0.25mm 102 W/m2
10:09 52.7 °F /  11.5 °C 52 °F /  11.1 °C 30.16in /  1021.2hPa NE 0.6mph /  1km/h 2mph /  3.2km/h 94% 0.01in /  0.25mm 111 W/m2
10:14 52.5 °F /  11.4 °C 51.8 °F /  11 °C 30.16in /  1021.2hPa NE 0.8mph /  1.3km/h 3mph /  4.8km/h 94% 0.01in /  0.25mm 114 W/m2
10:19 52.5 °F /  11.4 °C 51.8 °F /  11 °C 30.16in /  1021.2hPa NE 0.5mph /  0.8km/h 2mph /  3.2km/h 94% 0.01in /  0.25mm 104 W/m2
10:24 52.5 °F /  11.4 °C 51.8 °F /  11 °C 30.16in /  1021.2hPa NE 0.6mph /  1km/h 2mph /  3.2km/h 94% 0.01in /  0.25mm 105 W/m2
10:29 53 °F /  11.7 °C 52.2 °F /  11.2 °C 30.16in /  1021.2hPa NE 0.2mph /  0.3km/h 2mph /  3.2km/h 94% 0.01in /  0.25mm 113 W/m2
10:34 53.2 °F /  11.8 °C 52.4 °F /  11.3 °C 30.16in /  1021.2hPa Calm     94% 0.01in /  0.25mm 135 W/m2
10:39 53.6 °F /  12 °C 52.9 °F /  11.6 °C 30.16in /  1021.2hPa NE 0.6mph /  1km/h 3mph /  4.8km/h 94% 0.01in /  0.25mm 137 W/m2
10:44 53.4 °F /  11.9 °C 52.7 °F /  11.5 °C 30.16in /  1021.2hPa NE 0.5mph /  0.8km/h 4mph /  6.4km/h 94% 0.00in /  0mm 176 W/m2
10:49 53.7 °F /  12.1 °C 53 °F /  11.7 °C 30.16in /  1021.2hPa NE 0.4mph /  0.6km/h 2mph /  3.2km/h 94% 0.00in /  0mm 202 W/m2
10:54 53.9 °F /  12.2 °C 53.2 °F /  11.8 °C 30.15in /  1020.9hPa Calm   2mph /  3.2km/h 94% 0.00in /  0mm 197 W/m2
10:59 53.9 °F /  12.2 °C 53.2 °F /  11.8 °C 30.15in /  1020.9hPa NE 0.2mph /  0.3km/h 2mph /  3.2km/h 94% 0.00in /  0mm 202 W/m2
11:04 54.5 °F /  12.5 °C 53.8 °F /  12.1 °C 30.15in /  1020.9hPa NE 0.8mph /  1.3km/h 3mph /  4.8km/h 94.2% 0.00in /  0mm 258 W/m2
11:09 55.1 °F /  12.8 °C 54.4 °F /  12.4 °C 30.15in /  1020.9hPa NE 2.1mph /  3.4km/h 4mph /  6.4km/h 94.2% 0.00in /  0mm 308 W/m2
11:14 55.6 °F /  13.1 °C 54.9 °F /  12.7 °C 30.15in /  1020.9hPa NE 2.5mph /  4km/h 4mph /  6.4km/h 94% 0.00in /  0mm 279 W/m2
11:19 56.1 °F /  13.4 °C 55.2 °F /  12.9 °C 30.15in /  1020.9hPa NE 2.3mph /  3.7km/h 5mph /  8km/h 94% 0.00in /  0mm 350 W/m2
11:24 56.7 °F /  13.7 °C 55.8 °F /  13.2 °C 30.15in /  1020.9hPa NE 1.4mph /  2.3km/h 5mph /  8km/h 94% 0.00in /  0mm 325 W/m2
11:29 56.7 °F /  13.7 °C 55.6 °F /  13.1 °C 30.15in /  1020.9hPa NE 1.2mph /  1.9km/h 5mph /  8km/h 93.2% 0.00in /  0mm 279 W/m2
11:34 56.7 °F /  13.7 °C 55.7 °F /  13.2 °C 30.15in /  1020.9hPa NE 0.9mph /  1.4km/h 3mph /  4.8km/h 93% 0.00in /  0mm 316 W/m2
11:39 57.4 °F /  14.1 °C 56.2 °F /  13.4 °C 30.15in /  1020.9hPa NE 1.6mph /  2.6km/h 3mph /  4.8km/h 92.6% 0.00in /  0mm 218 W/m2
11:44 57.3 °F /  14.1 °C 55.7 °F /  13.2 °C 30.15in /  1020.9hPa NE 2.8mph /  4.5km/h 7mph /  11.3km/h 91.8% 0.00in /  0mm 306 W/m2
11:49 56.8 °F /  13.8 °C 55 °F /  12.8 °C 30.15in /  1020.9hPa NE 3.3mph /  5.3km/h 8mph /  12.9km/h 90.6% 0.00in /  0mm 292 W/m2
11:54 56.5 °F /  13.6 °C 54.5 °F /  12.5 °C 30.14in /  1020.5hPa NE 4mph /  6.4km/h 8mph /  12.9km/h 90% 0.00in /  0mm 279 W/m2
11:59 56.5 °F /  13.6 °C 54.5 °F /  12.5 °C 30.14in /  1020.5hPa NE 2.5mph /  4km/h 5mph /  8km/h 90% 0.00in /  0mm 367 W/m2
12:04 56.8 °F /  13.8 °C 54.9 °F /  12.7 °C 30.14in /  1020.5hPa NE 2.5mph /  4km/h 5mph /  8km/h 90% 0.00in /  0mm 369 W/m2
12:09 57.6 °F /  14.2 °C 55.6 °F /  13.1 °C 30.14in /  1020.5hPa NE 3.1mph /  5km/h 8mph /  12.9km/h 90% 0.00in /  0mm 524 W/m2
12:13 58.3 °F /  14.6 °C 56 °F /  13.3 °C 30.14in /  1020.5hPa NE 3.7mph /  6km/h 10mph /  16.1km/h 89.3% 0.00in /  0mm 554 W/m2
12:19 59 °F /  15 °C 56.3 °F /  13.5 °C 30.14in /  1020.5hPa NE 2mph /  3.2km/h 7mph /  11.3km/h 88% 0.00in /  0mm 686 W/m2
12:24 59.7 °F /  15.4 °C 56.4 °F /  13.6 °C 30.14in /  1020.5hPa NE 2.9mph /  4.7km/h 5mph /  8km/h 86% 0.00in /  0mm 628 W/m2
12:29 59.7 °F /  15.4 °C 55.9 °F /  13.3 °C 30.14in /  1020.5hPa NE 2.7mph /  4.3km/h 7mph /  11.3km/h 84.4% 0.00in /  0mm 633 W/m2
12:34 58.9 °F /  14.9 °C 55.2 °F /  12.9 °C 30.14in /  1020.5hPa NE 4.4mph /  7.1km/h 8mph /  12.9km/h 84.6% 0.00in /  0mm 429 W/m2
12:39 59.3 °F /  15.2 °C 55.9 °F /  13.3 °C 30.14in /  1020.5hPa NE 2.1mph /  3.4km/h 7mph /  11.3km/h 85.6% 0.00in /  0mm 243 W/m2
12:44 59.5 °F /  15.3 °C 56 °F /  13.3 °C 30.14in /  1020.5hPa NE 2.9mph /  4.7km/h 7mph /  11.3km/h 85.2% 0.00in /  0mm 216 W/m2
12:49 59.4 °F /  15.2 °C 55.8 °F /  13.2 °C 30.14in /  1020.5hPa NE 3.1mph /  5km/h 7mph /  11.3km/h 85% 0.00in /  0mm 211 W/m2
12:54 59.4 °F /  15.2 °C 55.8 °F /  13.2 °C 30.13in /  1020.2hPa NE 2.9mph /  4.7km/h 5mph /  8km/h 85% 0.00in /  0mm 251 W/m2
12:59 59.7 °F /  15.4 °C 56.1 °F /  13.4 °C 30.13in /  1020.2hPa NE 3.5mph /  5.6km/h 7mph /  11.3km/h 85% 0.00in /  0mm 258 W/m2
13:04 60.2 °F /  15.7 °C 56.4 °F /  13.6 °C 30.13in /  1020.2hPa NE 2.8mph /  4.5km/h 7mph /  11.3km/h 84.4% 0.00in /  0mm 471 W/m2
13:09 60.5 °F /  15.8 °C 56.4 °F /  13.6 °C 30.12in /  1019.9hPa NE 2mph /  3.2km/h 7mph /  11.3km/h 83.6% 0.00in /  0mm 276 W/m2
13:14 60.8 °F /  16 °C 56.4 °F /  13.6 °C 30.12in /  1019.9hPa NE 2mph /  3.2km/h 11mph /  17.7km/h 82.8% 0.00in /  0mm 626 W/m2
13:19 61.1 °F /  16.2 °C 55.9 °F /  13.3 °C 30.12in /  1019.9hPa East 4mph /  6.4km/h 11mph /  17.7km/h 80.4% 0.00in /  0mm 585 W/m2
13:24 61.7 °F /  16.5 °C 55.9 °F /  13.3 °C 30.12in /  1019.9hPa ESE 2.9mph /  4.7km/h 7mph /  11.3km/h 78.8% 0.00in /  0mm 554 W/m2
13:29 62.1 °F /  16.7 °C 55.7 °F /  13.2 °C 30.11in /  1019.5hPa ESE 2.9mph /  4.7km/h 7mph /  11.3km/h 77% 0.00in /  0mm 566 W/m2
13:34 62.4 °F /  16.9 °C 55.6 °F /  13.1 °C 30.11in /  1019.5hPa ESE 3mph /  4.8km/h 7mph /  11.3km/h 76% 0.00in /  0mm 469 W/m2
13:39 62.2 °F /  16.8 °C 55.2 °F /  12.9 °C 30.11in /  1019.5hPa SSE 7.8mph /  12.6km/h 12mph /  19.3km/h 75.6% 0.00in /  0mm 292 W/m2
13:44 61.4 °F /  16.3 °C 54.8 °F /  12.7 °C 30.11in /  1019.5hPa South 4.1mph /  6.6km/h 12mph /  19.3km/h 76.8% 0.00in /  0mm 450 W/m2
13:49 61.6 °F /  16.4 °C 55.1 °F /  12.8 °C 30.11in /  1019.5hPa South 4.4mph /  7.1km/h 8mph /  12.9km/h 76.8% 0.00in /  0mm 494 W/m2
13:54 61.9 °F /  16.6 °C 55.3 °F /  12.9 °C 30.11in /  1019.5hPa South 3.6mph /  5.8km/h 7mph /  11.3km/h 76.6% 0.00in /  0mm 534 W/m2
13:59 61.7 °F /  16.5 °C 55.1 °F /  12.8 °C 30.11in /  1019.5hPa South 4mph /  6.4km/h 9mph /  14.5km/h 76.6% 0.00in /  0mm 534 W/m2
14:04 61.4 °F /  16.3 °C 54.8 °F /  12.7 °C 30.11in /  1019.5hPa South 3.3mph /  5.3km/h 8mph /  12.9km/h 76.6% 0.00in /  0mm 297 W/m2
14:09 61.7 °F /  16.5 °C 55.2 °F /  12.9 °C 30.11in /  1019.5hPa South 3.8mph /  6.1km/h 7mph /  11.3km/h 77% 0.00in /  0mm 283 W/m2
14:14 61.9 °F /  16.6 °C 55 °F /  12.8 °C 30.10in /  1019.2hPa South 3.3mph /  5.3km/h 7mph /  11.3km/h 76% 0.00in /  0mm 410 W/m2
14:19 62 °F /  16.7 °C 55 °F /  12.8 °C 30.10in /  1019.2hPa South 3.3mph /  5.3km/h 7mph /  11.3km/h 75.8% 0.00in /  0mm 374 W/m2
14:24 62.5 °F /  16.9 °C 55.2 °F /  12.9 °C 30.10in /  1019.2hPa South 3.3mph /  5.3km/h 6mph /  9.7km/h 74.8% 0.00in /  0mm 408 W/m2
14:29 62.6 °F /  17 °C 55.1 °F /  12.8 °C 30.10in /  1019.2hPa South 3mph /  4.8km/h 6mph /  9.7km/h 74.2% 0.00in /  0mm 473 W/m2
14:33 62.8 °F /  17.1 °C 55.5 °F /  13.1 °C 30.09in /  1018.8hPa South 3.2mph /  5.1km/h 6mph /  9.7km/h 74.5% 0.00in /  0mm 214 W/m2
14:39 62.2 °F /  16.8 °C 54.7 °F /  12.6 °C 30.09in /  1018.8hPa South 4.7mph /  7.6km/h 8mph /  12.9km/h 74% 0.00in /  0mm 264 W/m2
14:44 62.2 °F /  16.8 °C 54.7 °F /  12.6 °C 30.09in /  1018.8hPa South 3.1mph /  5km/h 6mph /  9.7km/h 74.4% 0.00in /  0mm 250 W/m2
14:49 62.2 °F /  16.8 °C 54.9 °F /  12.7 °C 30.09in /  1018.8hPa South 2.9mph /  4.7km/h 8mph /  12.9km/h 74.6% 0.00in /  0mm 285 W/m2
14:54 62.1 °F /  16.7 °C 54.6 °F /  12.6 °C 30.09in /  1018.8hPa South 5.2mph /  8.4km/h 9mph /  14.5km/h 74.2% 0.00in /  0mm 499 W/m2
14:59 62.2 °F /  16.8 °C 54.7 °F /  12.6 °C 30.09in /  1018.8hPa South 4.1mph /  6.6km/h 9mph /  14.5km/h 74% 0.00in /  0mm 550 W/m2
15:04 62.9 °F /  17.2 °C 55.1 °F /  12.8 °C 30.09in /  1018.8hPa South 3.5mph /  5.6km/h 7mph /  11.3km/h 73.4% 0.00in /  0mm 533 W/m2
15:09 63.1 °F /  17.3 °C 55 °F /  12.8 °C 30.08in /  1018.5hPa South 3.6mph /  5.8km/h 7mph /  11.3km/h 72.4% 0.00in /  0mm 378 W/m2
15:14 62.9 °F /  17.2 °C 54.9 °F /  12.7 °C 30.08in /  1018.5hPa South 3.9mph /  6.3km/h 7mph /  11.3km/h 73% 0.00in /  0mm 304 W/m2
15:19 62.6 °F /  17 °C 54.8 °F /  12.7 °C 30.08in /  1018.5hPa South 4.4mph /  7.1km/h 8mph /  12.9km/h 73.2% 0.00in /  0mm 211 W/m2
15:24 62.3 °F /  16.8 °C 54.8 °F /  12.7 °C 30.08in /  1018.5hPa South 3.8mph /  6.1km/h 8mph /  12.9km/h 74% 0.00in /  0mm 250 W/m2
15:29 62.4 °F /  16.9 °C 54.9 °F /  12.7 °C 30.08in /  1018.5hPa South 4.1mph /  6.6km/h 7mph /  11.3km/h 74% 0.00in /  0mm 246 W/m2
15:34 62.4 °F /  16.9 °C 55.2 °F /  12.9 °C 30.08in /  1018.5hPa South 2.3mph /  3.7km/h 6mph /  9.7km/h 74.8% 0.00in /  0mm 396 W/m2
15:39 63 °F /  17.2 °C 55.6 °F /  13.1 °C 30.08in /  1018.5hPa South 2.4mph /  3.9km/h 5mph /  8km/h 74.4% 0.00in /  0mm 399 W/m2
15:44 63.1 °F /  17.3 °C 55.6 °F /  13.1 °C 30.08in /  1018.5hPa South 3.2mph /  5.1km/h 7mph /  11.3km/h 73.8% 0.00in /  0mm 383 W/m2
15:49 63.1 °F /  17.3 °C 55.8 °F /  13.2 °C 30.08in /  1018.5hPa South 1.6mph /  2.6km/h 5mph /  8km/h 74.4% 0.00in /  0mm 329 W/m2
15:54 62.8 °F /  17.1 °C 55.5 °F /  13.1 °C 30.08in /  1018.5hPa South 3.6mph /  5.8km/h 6mph /  9.7km/h 74.8% 0.00in /  0mm 255 W/m2
15:59 62.1 °F /  16.7 °C 55 °F /  12.8 °C 30.08in /  1018.5hPa South 4.6mph /  7.4km/h 7mph /  11.3km/h 75.4% 0.00in /  0mm 121 W/m2
16:04 61.7 °F /  16.5 °C 54.9 °F /  12.7 °C 30.08in /  1018.5hPa South 3.1mph /  5km/h 7mph /  11.3km/h 76.2% 0.00in /  0mm 127 W/m2
16:09 61.9 °F /  16.6 °C 55.3 °F /  12.9 °C 30.08in /  1018.5hPa South 2.1mph /  3.4km/h 5mph /  8km/h 76.8% 0.00in /  0mm 100 W/m2
16:14 61.8 °F /  16.6 °C 55 °F /  12.8 °C 30.08in /  1018.5hPa South 2.8mph /  4.5km/h 6mph /  9.7km/h 76.2% 0.00in /  0mm 269 W/m2
16:19 61.9 °F /  16.6 °C 55 °F /  12.8 °C 30.08in /  1018.5hPa South 2.2mph /  3.5km/h 6mph /  9.7km/h 76% 0.00in /  0mm 304 W/m2
16:24 62.2 °F /  16.8 °C 55.3 °F /  12.9 °C 30.08in /  1018.5hPa South 3.3mph /  5.3km/h 7mph /  11.3km/h 75.8% 0.00in /  0mm 329 W/m2
16:29 62.6 °F /  17 °C 55.5 °F /  13.1 °C 30.08in /  1018.5hPa South 2.9mph /  4.7km/h 6mph /  9.7km/h 75.2% 0.00in /  0mm 336 W/m2
16:34 63 °F /  17.2 °C 55.2 °F /  12.9 °C 30.08in /  1018.5hPa South 3.7mph /  6km/h 7mph /  11.3km/h 73.6% 0.00in /  0mm 142 W/m2
16:39 62.5 °F /  16.9 °C 54.2 °F /  12.3 °C 30.08in /  1018.5hPa South 3.5mph /  5.6km/h 7mph /  11.3km/h 72% 0.00in /  0mm 83 W/m2
16:44 62.2 °F /  16.8 °C 54.3 °F /  12.4 °C 30.08in /  1018.5hPa South 2.6mph /  4.2km/h 6mph /  9.7km/h 73% 0.00in /  0mm 171 W/m2
16:49 62.4 °F /  16.9 °C 54.3 °F /  12.4 °C 30.08in /  1018.5hPa South 2.4mph /  3.9km/h 6mph /  9.7km/h 72.4% 0.00in /  0mm 202 W/m2
16:54 62.8 °F /  17.1 °C 54.5 °F /  12.5 °C 30.07in /  1018.2hPa South 3.7mph /  6km/h 5mph /  8km/h 72% 0.00in /  0mm 202 W/m2
16:59 63 °F /  17.2 °C 54.6 °F /  12.6 °C 30.07in /  1018.2hPa SSW 5.3mph /  8.5km/h 10mph /  16.1km/h 71.8% 0.00in /  0mm 171 W/m2
17:04 62.8 °F /  17.1 °C 54 °F /  12.2 °C 30.08in /  1018.5hPa SSW 5.6mph /  9km/h 9mph /  14.5km/h 70.8% 0.00in /  0mm 130 W/m2
17:09 62.2 °F /  16.8 °C 53.4 °F /  11.9 °C 30.08in /  1018.5hPa SSW 4.8mph /  7.7km/h 10mph /  16.1km/h 70.4% 0.00in /  0mm 105 W/m2
17:14 62.2 °F /  16.8 °C 53.8 °F /  12.1 °C 30.08in /  1018.5hPa SSW 2.8mph /  4.5km/h 5mph /  8km/h 71.4% 0.00in /  0mm 84 W/m2
17:19 62 °F /  16.7 °C 53.8 °F /  12.1 °C 30.07in /  1018.2hPa SSW 4.1mph /  6.6km/h 7mph /  11.3km/h 72% 0.00in /  0mm 63 W/m2
17:24 61.6 °F /  16.4 °C 53.4 °F /  11.9 °C 30.08in /  1018.5hPa SSW 5.9mph /  9.5km/h 9mph /  14.5km/h 72.4% 0.00in /  0mm 51 W/m2
17:29 61.3 °F /  16.3 °C 53.3 °F /  11.8 °C 30.08in /  1018.5hPa SSW 3.5mph /  5.6km/h 7mph /  11.3km/h 73% 0.00in /  0mm 46 W/m2
17:34 61.2 °F /  16.2 °C 53.2 °F /  11.8 °C 30.08in /  1018.5hPa SSW 3.7mph /  6km/h 6mph /  9.7km/h 73% 0.00in /  0mm 37 W/m2
17:39 60.8 °F /  16 °C 53.3 °F /  11.8 °C 30.08in /  1018.5hPa SSW 2.5mph /  4km/h 6mph /  9.7km/h 74% 0.00in /  0mm 33 W/m2
17:44 60.5 °F /  15.8 °C 53.2 °F /  11.8 °C 30.08in /  1018.5hPa SSW 3.8mph /  6.1km/h 6mph /  9.7km/h 74.2% 0.00in /  0mm 28 W/m2
17:49 60.3 °F /  15.7 °C 53.2 °F /  11.8 °C 30.08in /  1018.5hPa SSW 4.2mph /  6.8km/h 7mph /  11.3km/h 75% 0.00in /  0mm 25 W/m2
17:54 60 °F /  15.6 °C 53.2 °F /  11.8 °C 30.08in /  1018.5hPa SSW 1.2mph /  1.9km/h 6mph /  9.7km/h 75.6% 0.00in /  0mm 21 W/m2
17:59 59.7 °F /  15.4 °C 53.1 °F /  11.7 °C 30.08in /  1018.5hPa SSW 1mph /  1.6km/h 4mph /  6.4km/h 76% 0.00in /  0mm 16 W/m2
18:04 59.7 °F /  15.4 °C 53.1 °F /  11.7 °C 30.08in /  1018.5hPa SSW 0.8mph /  1.3km/h 3mph /  4.8km/h 76% 0.00in /  0mm 14 W/m2
18:09 59.5 °F /  15.3 °C 53 °F /  11.7 °C 30.08in /  1018.5hPa SSW 2mph /  3.2km/h 4mph /  6.4km/h 76.4% 0.00in /  0mm 7 W/m2
18:14 59.2 °F /  15.1 °C 52.9 °F /  11.6 °C 30.08in /  1018.5hPa SSW 1.2mph /  1.9km/h 4mph /  6.4km/h 77% 0.00in /  0mm 0 W/m2
18:19 58.8 °F /  14.9 °C 52.5 °F /  11.4 °C 30.08in /  1018.5hPa Calm   3mph /  4.8km/h 77% 0.00in /  0mm 0 W/m2
18:24 58.7 °F /  14.8 °C 52.8 °F /  11.6 °C 30.08in /  1018.5hPa Calm   1mph /  1.6km/h 78% 0.00in /  0mm 0 W/m2
18:29 58.5 °F /  14.7 °C 52.6 °F /  11.4 °C 30.08in /  1018.5hPa SSW 0.2mph /  0.3km/h 3mph /  4.8km/h 78% 0.00in /  0mm 0 W/m2
18:34 58.3 °F /  14.6 °C 52.3 °F /  11.3 °C 30.08in /  1018.5hPa SSW 0.8mph /  1.3km/h 3mph /  4.8km/h 78% 0.00in /  0mm 0 W/m2
18:39 58 °F /  14.4 °C 52.2 °F /  11.2 °C 30.08in /  1018.5hPa SSW 1mph /  1.6km/h 3mph /  4.8km/h 78.4% 0.00in /  0mm 0 W/m2
18:44 57.8 °F /  14.3 °C 52.2 °F /  11.2 °C 30.08in /  1018.5hPa Calm     79% 0.00in /  0mm 0 W/m2
18:49 57.7 °F /  14.3 °C 52.2 °F /  11.2 °C 30.08in /  1018.5hPa Calm     79% 0.00in /  0mm 0 W/m2
18:54 57.6 °F /  14.2 °C 52 °F /  11.1 °C 30.08in /  1018.5hPa Calm   1mph /  1.6km/h 79% 0.00in /  0mm 0 W/m2
18:59 57.3 °F /  14.1 °C 52 °F /  11.1 °C 30.08in /  1018.5hPa Calm   1mph /  1.6km/h 79.8% 0.00in /  0mm 0 W/m2
19:04 57 °F /  13.9 °C 51.8 °F /  11 °C 30.08in /  1018.5hPa SSW 0.4mph /  0.6km/h 2mph /  3.2km/h 80% 0.00in /  0mm 0 W/m2
19:09 56.8 °F /  13.8 °C 51.7 °F /  10.9 °C 30.08in /  1018.5hPa SSW 1.2mph /  1.9km/h 3mph /  4.8km/h 80.4% 0.00in /  0mm 0 W/m2
19:14 56.7 °F /  13.7 °C 51.8 °F /  11 °C 30.08in /  1018.5hPa Calm   3mph /  4.8km/h 81% 0.00in /  0mm 0 W/m2
19:19 56.5 °F /  13.6 °C 51.6 °F /  10.9 °C 30.08in /  1018.5hPa Calm     81% 0.00in /  0mm 0 W/m2
19:24 56.1 °F /  13.4 °C 51.5 °F /  10.8 °C 30.08in /  1018.5hPa Calm     81.8% 0.00in /  0mm 0 W/m2
19:29 55.8 °F /  13.2 °C 51.3 °F /  10.7 °C 30.08in /  1018.5hPa Calm     82% 0.00in /  0mm 0 W/m2
19:34 55.6 °F /  13.1 °C 51.4 °F /  10.8 °C 30.08in /  1018.5hPa Calm     82.8% 0.00in /  0mm 0 W/m2
19:39 55.6 °F /  13.1 °C 51.4 °F /  10.8 °C 30.08in /  1018.5hPa Calm     83% 0.00in /  0mm 0 W/m2
19:44 55.2 °F /  12.9 °C 51.1 °F /  10.6 °C 30.08in /  1018.5hPa Calm     83% 0.00in /  0mm 0 W/m2
19:49 55 °F /  12.8 °C 51.2 °F /  10.7 °C 30.08in /  1018.5hPa Calm     83.8% 0.00in /  0mm 0 W/m2
19:54 54.9 °F /  12.7 °C 51.1 °F /  10.6 °C 30.08in /  1018.5hPa Calm     84% 0.00in /  0mm 0 W/m2
19:59 54.7 °F /  12.6 °C 50.9 °F /  10.5 °C 30.08in /  1018.5hPa Calm     84% 0.00in /  0mm 0 W/m2
20:04 54.6 °F /  12.6 °C 51 °F /  10.6 °C 30.08in /  1018.5hPa Calm     85% 0.00in /  0mm 0 W/m2
20:09 54.3 °F /  12.4 °C 50.7 °F /  10.4 °C 30.08in /  1018.5hPa Calm     85% 0.00in /  0mm 0 W/m2
20:14 54.1 °F /  12.3 °C 50.5 °F /  10.3 °C 30.08in /  1018.5hPa SSW 0.2mph /  0.3km/h 1mph /  1.6km/h 85% 0.00in /  0mm 0 W/m2
20:19 54.1 °F /  12.3 °C 50.5 °F /  10.3 °C 30.08in /  1018.5hPa Calm   2mph /  3.2km/h 85% 0.00in /  0mm 0 W/m2
20:24 54.3 °F /  12.4 °C 51.1 °F /  10.6 °C 30.08in /  1018.5hPa SSW 1.4mph /  2.3km/h 3mph /  4.8km/h 86% 0.00in /  0mm 0 W/m2
20:29 54.3 °F /  12.4 °C 51.1 °F /  10.6 °C 30.08in /  1018.5hPa SSW 0.2mph /  0.3km/h 2mph /  3.2km/h 86% 0.00in /  0mm 0 W/m2
20:34 54.3 °F /  12.4 °C 51.1 °F /  10.6 °C 30.09in /  1018.8hPa Calm     86% 0.00in /  0mm 0 W/m2
20:39 54.3 °F /  12.4 °C 51.1 °F /  10.6 °C 30.08in /  1018.5hPa Calm     86% 0.00in /  0mm 0 W/m2
20:44 54.1 °F /  12.3 °C 50.9 °F /  10.5 °C 30.08in /  1018.5hPa Calm     86% 0.00in /  0mm 0 W/m2
20:49 54 °F /  12.2 °C 50.7 °F /  10.4 °C 30.08in /  1018.5hPa Calm     86% 0.00in /  0mm 0 W/m2
20:54 53.8 °F /  12.1 °C 50.7 °F /  10.4 °C 30.09in /  1018.8hPa SSW 0.2mph /  0.3km/h 2mph /  3.2km/h 86.4% 0.00in /  0mm 0 W/m2
20:59 54 °F /  12.2 °C 51.1 °F /  10.6 °C 30.08in /  1018.5hPa SSW 0.6mph /  1km/h 2mph /  3.2km/h 87% 0.00in /  0mm 0 W/m2
21:04 54 °F /  12.2 °C 51.1 °F /  10.6 °C 30.08in /  1018.5hPa SSW 0.6mph /  1km/h 2mph /  3.2km/h 87% 0.00in /  0mm 0 W/m2
21:09 54 °F /  12.2 °C 51.1 °F /  10.6 °C 30.08in /  1018.5hPa SSW 0.8mph /  1.3km/h 3mph /  4.8km/h 87% 0.00in /  0mm 0 W/m2
21:14 54 °F /  12.2 °C 51.1 °F /  10.6 °C 30.08in /  1018.5hPa Calm   2mph /  3.2km/h 87% 0.00in /  0mm 0 W/m2
21:19 53.8 °F /  12.1 °C 51 °F /  10.6 °C 30.08in /  1018.5hPa Calm   1mph /  1.6km/h 87% 0.00in /  0mm 0 W/m2
21:24 53.8 °F /  12.1 °C 50.9 °F /  10.5 °C 30.08in /  1018.5hPa SSW 0.4mph /  0.6km/h 2mph /  3.2km/h 87% 0.00in /  0mm 0 W/m2
21:29 53.8 °F /  12.1 °C 50.9 °F /  10.5 °C 30.08in /  1018.5hPa SSW 0.6mph /  1km/h 2mph /  3.2km/h 87% 0.00in /  0mm 0 W/m2
21:34 53.6 °F /  12 °C 50.7 °F /  10.4 °C 30.08in /  1018.5hPa Calm   2mph /  3.2km/h 87% 0.00in /  0mm 0 W/m2
21:39 53.4 °F /  11.9 °C 50.5 °F /  10.3 °C 30.08in /  1018.5hPa SSW 1.6mph /  2.6km/h 3mph /  4.8km/h 87% 0.00in /  0mm 0 W/m2
21:44 53.4 °F /  11.9 °C 50.9 °F /  10.5 °C 30.08in /  1018.5hPa SSW 0.8mph /  1.3km/h 4mph /  6.4km/h 88% 0.00in /  0mm 0 W/m2
21:49 53.4 °F /  11.9 °C 50.9 °F /  10.5 °C 30.08in /  1018.5hPa SSW 0.2mph /  0.3km/h 2mph /  3.2km/h 88% 0.00in /  0mm 0 W/m2
21:54 53.4 °F /  11.9 °C 50.9 °F /  10.5 °C 30.08in /  1018.5hPa Calm   2mph /  3.2km/h 88% 0.00in /  0mm 0 W/m2
21:59 53.2 °F /  11.8 °C 50.7 °F /  10.4 °C 30.08in /  1018.5hPa SSW 0.2mph /  0.3km/h 2mph /  3.2km/h 88% 0.00in /  0mm 0 W/m2
22:04 53.2 °F /  11.8 °C 50.7 °F /  10.4 °C 30.08in /  1018.5hPa SSW 0.4mph /  0.6km/h 2mph /  3.2km/h 88% 0.00in /  0mm 0 W/m2
22:09 53.2 °F /  11.8 °C 50.7 °F /  10.4 °C 30.08in /  1018.5hPa SSW 0.4mph /  0.6km/h 2mph /  3.2km/h 88% 0.00in /  0mm 0 W/m2
22:14 53.1 °F /  11.7 °C 50.5 °F /  10.3 °C 30.08in /  1018.5hPa SSW 0.6mph /  1km/h 3mph /  4.8km/h 88% 0.00in /  0mm 0 W/m2
22:19 53.1 °F /  11.7 °C 50.5 °F /  10.3 °C 30.08in /  1018.5hPa Calm   2mph /  3.2km/h 88% 0.00in /  0mm 0 W/m2
22:24 53.1 °F /  11.7 °C 50.5 °F /  10.3 °C 30.08in /  1018.5hPa Calm   1mph /  1.6km/h 88% 0.00in /  0mm 0 W/m2
22:29 53 °F /  11.7 °C 50.6 °F /  10.3 °C 30.07in /  1018.2hPa Calm   2mph /  3.2km/h 89% 0.00in /  0mm 0 W/m2
22:34 52.9 °F /  11.6 °C 50.5 °F /  10.3 °C 30.07in /  1018.2hPa SSW 0.2mph /  0.3km/h 1mph /  1.6km/h 89% 0.00in /  0mm 0 W/m2
22:39 53.1 °F /  11.7 °C 50.7 °F /  10.4 °C 30.07in /  1018.2hPa SSW 0.9mph /  1.4km/h 3mph /  4.8km/h 89% 0.00in /  0mm 0 W/m2
22:44 53.1 °F /  11.7 °C 50.7 °F /  10.4 °C 30.07in /  1018.2hPa Calm   3mph /  4.8km/h 89% 0.00in /  0mm 0 W/m2
22:49 53.1 °F /  11.7 °C 50.7 °F /  10.4 °C 30.07in /  1018.2hPa SSW 0.2mph /  0.3km/h 3mph /  4.8km/h 89% 0.00in /  0mm 0 W/m2
22:54 53.1 °F /  11.7 °C 50.7 °F /  10.4 °C 30.07in /  1018.2hPa SSW 0.2mph /  0.3km/h 2mph /  3.2km/h 89% 0.00in /  0mm 0 W/m2
22:59 53.1 °F /  11.7 °C 50.9 °F /  10.5 °C 30.07in /  1018.2hPa SSW 1.4mph /  2.3km/h 3mph /  4.8km/h 89.6% 0.00in /  0mm 0 W/m2
23:04 53.1 °F /  11.7 °C 51.1 °F /  10.6 °C 30.07in /  1018.2hPa SSW 0.5mph /  0.8km/h 3mph /  4.8km/h 90% 0.00in /  0mm 0 W/m2
23:09 52.9 °F /  11.6 °C 50.9 °F /  10.5 °C 30.07in /  1018.2hPa SSW 0.2mph /  0.3km/h 2mph /  3.2km/h 90% 0.00in /  0mm 0 W/m2
23:14 52.9 °F /  11.6 °C 50.9 °F /  10.5 °C 30.07in /  1018.2hPa SSW 1mph /  1.6km/h 4mph /  6.4km/h 90% 0.00in /  0mm 0 W/m2
23:19 52.9 °F /  11.6 °C 50.9 °F /  10.5 °C 30.07in /  1018.2hPa Calm   2mph /  3.2km/h 90% 0.00in /  0mm 0 W/m2
23:24 52.9 °F /  11.6 °C 50.9 °F /  10.5 °C 30.07in /  1018.2hPa Calm     90% 0.00in /  0mm 0 W/m2
23:29 52.9 °F /  11.6 °C 50.9 °F /  10.5 °C 30.07in /  1018.2hPa SSW 0.8mph /  1.3km/h 2mph /  3.2km/h 90% 0.00in /  0mm 0 W/m2
23:34 52.7 °F /  11.5 °C 50.7 °F /  10.4 °C 30.07in /  1018.2hPa SSW 0.4mph /  0.6km/h 2mph /  3.2km/h 90% 0.00in /  0mm 0 W/m2
23:39 52.7 °F /  11.5 °C 50.7 °F /  10.4 °C 30.06in /  1017.8hPa SSW 0.9mph /  1.4km/h 2mph /  3.2km/h 90% 0.00in /  0mm 0 W/m2
23:44 52.6 °F /  11.4 °C 50.6 °F /  10.3 °C 30.06in /  1017.8hPa SSW 0.5mph /  0.8km/h 2mph /  3.2km/h 90% 0.00in /  0mm 0 W/m2
23:49 52.5 °F /  11.4 °C 50.5 °F /  10.3 °C 30.06in /  1017.8hPa SSW 1mph /  1.6km/h 2mph /  3.2km/h 90% 0.00in /  0mm 0 W/m2
23:54 52.5 °F /  11.4 °C 50.9 °F /  10.5 °C 30.06in /  1017.8hPa SSW 0.5mph /  0.8km/h 2mph /  3.2km/h 91% 0.00in /  0mm 0 W/m2
23:59 52.4 °F /  11.3 °C 50.8 °F /  10.4 °C 30.06in /  1017.8hPa Calm     91% 0.00in /  0mm 0 W/m2
Bath Spa Weather
Compliments of Weather Underground - 2 mb